sensor_id;sensor_type;location;lat;lon;timestamp;pressure;altitude;pressure_sealevel;temperature;humidity
29197;BME280;62796;42.654;23.316;2022-12-18T00:01:49;95281.31;;;9.68;61.74
29197;BME280;62796;42.654;23.316;2022-12-18T00:04:21;95290.84;;;9.58;61.85
29197;BME280;62796;42.654;23.316;2022-12-18T00:06:47;95294.06;;;9.48;61.94
29197;BME280;62796;42.654;23.316;2022-12-18T00:09:12;95301.75;;;9.53;61.87
29197;BME280;62796;42.654;23.316;2022-12-18T00:11:37;95296.81;;;9.48;61.70
29197;BME280;62796;42.654;23.316;2022-12-18T00:14:03;95294.50;;;9.37;62.09
29197;BME280;62796;42.654;23.316;2022-12-18T00:16:29;95306.50;;;9.34;61.78
29197;BME280;62796;42.654;23.316;2022-12-18T00:18:59;95305.72;;;9.33;62.34
29197;BME280;62796;42.654;23.316;2022-12-18T00:21:26;95301.25;;;9.27;61.84
29197;BME280;62796;42.654;23.316;2022-12-18T00:23:51;95301.41;;;9.23;62.10
29197;BME280;62796;42.654;23.316;2022-12-18T00:26:19;95305.88;;;9.30;62.28
29197;BME280;62796;42.654;23.316;2022-12-18T00:28:46;95323.50;;;9.23;61.96
29197;BME280;62796;42.654;23.316;2022-12-18T00:31:15;95318.91;;;9.20;62.07
29197;BME280;62796;42.654;23.316;2022-12-18T00:33:41;95320.59;;;9.18;61.82
29197;BME280;62796;42.654;23.316;2022-12-18T00:36:18;95316.88;;;9.12;62.02
29197;BME280;62796;42.654;23.316;2022-12-18T00:38:44;95315.16;;;9.05;62.16
29197;BME280;62796;42.654;23.316;2022-12-18T00:41:11;95324.09;;;9.09;62.50
29197;BME280;62796;42.654;23.316;2022-12-18T00:43:38;95328.72;;;9.12;61.86
29197;BME280;62796;42.654;23.316;2022-12-18T00:46:04;95325.00;;;9.06;62.19
29197;BME280;62796;42.654;23.316;2022-12-18T00:48:29;95325.28;;;8.99;62.49
29197;BME280;62796;42.654;23.316;2022-12-18T00:50:55;95328.38;;;9.01;62.89
29197;BME280;62796;42.654;23.316;2022-12-18T00:53:21;95335.44;;;9.02;62.63
29197;BME280;62796;42.654;23.316;2022-12-18T00:55:46;95334.47;;;8.96;62.30
29197;BME280;62796;42.654;23.316;2022-12-18T00:58:14;95339.06;;;8.90;62.38
29197;BME280;62796;42.654;23.316;2022-12-18T01:00:40;95333.53;;;8.90;62.15
29197;BME280;62796;42.654;23.316;2022-12-18T01:03:05;95328.19;;;8.86;61.98
29197;BME280;62796;42.654;23.316;2022-12-18T01:05:31;95348.59;;;8.89;62.36
29197;BME280;62796;42.654;23.316;2022-12-18T01:07:57;95346.00;;;8.95;61.69
29197;BME280;62796;42.654;23.316;2022-12-18T01:10:23;95357.06;;;8.95;61.69
29197;BME280;62796;42.654;23.316;2022-12-18T01:12:48;95359.66;;;8.89;61.90
29197;BME280;62796;42.654;23.316;2022-12-18T01:15:14;95359.94;;;8.91;61.55
29197;BME280;62796;42.654;23.316;2022-12-18T01:17:40;95362.25;;;8.83;61.65
29197;BME280;62796;42.654;23.316;2022-12-18T01:20:06;95366.34;;;8.79;61.55
29197;BME280;62796;42.654;23.316;2022-12-18T01:22:35;95355.78;;;8.77;61.49
29197;BME280;62796;42.654;23.316;2022-12-18T01:25:01;95368.81;;;8.77;61.38
29197;BME280;62796;42.654;23.316;2022-12-18T01:27:27;95374.31;;;8.77;61.22
29197;BME280;62796;42.654;23.316;2022-12-18T01:29:52;95370.03;;;8.76;61.02
29197;BME280;62796;42.654;23.316;2022-12-18T01:32:18;95372.16;;;8.72;60.95
29197;BME280;62796;42.654;23.316;2022-12-18T01:34:43;95376.91;;;8.71;60.98
29197;BME280;62796;42.654;23.316;2022-12-18T01:37:09;95378.59;;;8.69;60.54
29197;BME280;62796;42.654;23.316;2022-12-18T01:39:35;95356.41;;;8.51;60.19
29197;BME280;62796;42.654;23.316;2022-12-18T01:42:09;95381.66;;;8.71;60.41
29197;BME280;62796;42.654;23.316;2022-12-18T01:47:46;95387.22;;;8.49;60.70
29197;BME280;62796;42.654;23.316;2022-12-18T01:53:03;95387.88;;;8.31;61.02
29197;BME280;62796;42.654;23.316;2022-12-18T01:55:35;95389.41;;;8.32;60.92
29197;BME280;62796;42.654;23.316;2022-12-18T01:58:01;95390.94;;;8.33;61.31
29197;BME280;62796;42.654;23.316;2022-12-18T02:00:27;95381.69;;;8.27;61.32
29197;BME280;62796;42.654;23.316;2022-12-18T02:02:53;95382.34;;;8.31;61.17
29197;BME280;62796;42.654;23.316;2022-12-18T02:05:33;95385.88;;;8.32;60.44
29197;BME280;62796;42.654;23.316;2022-12-18T02:08:13;95397.38;;;8.30;60.76
29197;BME280;62796;42.654;23.316;2022-12-18T02:22:35;95409.69;;;8.39;60.09
29197;BME280;62796;42.654;23.316;2022-12-18T02:27:49;95411.28;;;8.27;60.58
29197;BME280;62796;42.654;23.316;2022-12-18T02:30:16;95406.88;;;8.29;61.02
29197;BME280;62796;42.654;23.316;2022-12-18T02:32:46;95407.19;;;8.31;60.72
29197;BME280;62796;42.654;23.316;2022-12-18T02:35:16;95413.91;;;8.30;60.37
29197;BME280;62796;42.654;23.316;2022-12-18T02:37:45;95415.47;;;8.31;60.65
29197;BME280;62796;42.654;23.316;2022-12-18T02:40:14;95416.75;;;8.40;60.34
29197;BME280;62796;42.654;23.316;2022-12-18T02:42:42;95425.38;;;8.42;60.14
29197;BME280;62796;42.654;23.316;2022-12-18T02:45:08;95416.00;;;8.39;60.18
29197;BME280;62796;42.654;23.316;2022-12-18T02:47:37;95410.72;;;8.32;60.50
29197;BME280;62796;42.654;23.316;2022-12-18T02:59:25;95428.63;;;8.27;60.05
29197;BME280;62796;42.654;23.316;2022-12-18T03:02:18;95426.72;;;8.24;59.88
29197;BME280;62796;42.654;23.316;2022-12-18T03:05:16;95432.53;;;8.17;60.07
29197;BME280;62796;42.654;23.316;2022-12-18T03:07:46;95426.28;;;8.04;60.06
29197;BME280;62796;42.654;23.316;2022-12-18T03:10:17;95435.38;;;7.92;60.62
29197;BME280;62796;42.654;23.316;2022-12-18T03:12:54;95445.31;;;7.90;60.78
29197;BME280;62796;42.654;23.316;2022-12-18T03:15:28;95440.69;;;7.87;60.68
29197;BME280;62796;42.654;23.316;2022-12-18T03:17:59;95442.34;;;7.84;60.89
29197;BME280;62796;42.654;23.316;2022-12-18T03:20:29;95442.34;;;7.84;61.20
29197;BME280;62796;42.654;23.316;2022-12-18T03:23:00;95446.00;;;7.81;61.16
29197;BME280;62796;42.654;23.316;2022-12-18T03:25:27;95443.34;;;7.77;61.37
29197;BME280;62796;42.654;23.316;2022-12-18T03:27:56;95441.69;;;7.80;61.48
29197;BME280;62796;42.654;23.316;2022-12-18T03:30:25;95449.63;;;7.78;61.41
29197;BME280;62796;42.654;23.316;2022-12-18T03:33:07;95450.72;;;7.80;61.50
29197;BME280;62796;42.654;23.316;2022-12-18T03:35:36;95454.59;;;7.83;61.17
29197;BME280;62796;42.654;23.316;2022-12-18T03:38:03;95466.84;;;7.82;61.06
29197;BME280;62796;42.654;23.316;2022-12-18T03:43:18;95475.81;;;7.73;60.72
29197;BME280;62796;42.654;23.316;2022-12-18T03:45:53;95484.00;;;7.64;60.69
29197;BME280;62796;42.654;23.316;2022-12-18T03:48:31;95481.22;;;7.64;61.29
29197;BME280;62796;42.654;23.316;2022-12-18T03:51:05;95493.56;;;7.60;60.91
29197;BME280;62796;42.654;23.316;2022-12-18T03:53:45;95482.91;;;7.49;60.94
29197;BME280;62796;42.654;23.316;2022-12-18T03:56:14;95488.84;;;7.48;60.71
29197;BME280;62796;42.654;23.316;2022-12-18T03:58:42;95487.41;;;7.31;61.17
29197;BME280;62796;42.654;23.316;2022-12-18T04:01:10;95486.97;;;7.32;61.33
29197;BME280;62796;42.654;23.316;2022-12-18T04:03:38;95502.09;;;7.28;61.38
29197;BME280;62796;42.654;23.316;2022-12-18T04:06:05;95496.78;;;7.33;61.40
29197;BME280;62796;42.654;23.316;2022-12-18T04:08:32;95479.16;;;7.18;61.59
29197;BME280;62796;42.654;23.316;2022-12-18T04:11:00;95504.84;;;7.28;61.29
29197;BME280;62796;42.654;23.316;2022-12-18T04:13:32;95508.34;;;7.15;61.51
29197;BME280;62796;42.654;23.316;2022-12-18T04:15:58;95509.78;;;7.07;61.18
29197;BME280;62796;42.654;23.316;2022-12-18T04:18:23;95510.66;;;7.04;61.76
29197;BME280;62796;42.654;23.316;2022-12-18T04:20:49;95515.81;;;7.02;61.36
29197;BME280;62796;42.654;23.316;2022-12-18T04:23:14;95513.19;;;6.99;61.58
29197;BME280;62796;42.654;23.316;2022-12-18T04:25:39;95515.69;;;6.93;61.34
29197;BME280;62796;42.654;23.316;2022-12-18T04:28:05;95518.56;;;6.90;61.08
29197;BME280;62796;42.654;23.316;2022-12-18T04:30:30;95521.75;;;6.88;61.28
29197;BME280;62796;42.654;23.316;2022-12-18T04:32:56;95518.31;;;6.72;61.32
29197;BME280;62796;42.654;23.316;2022-12-18T04:35:21;95526.13;;;6.73;61.39
29197;BME280;62796;42.654;23.316;2022-12-18T04:37:47;95535.38;;;6.79;61.26
29197;BME280;62796;42.654;23.316;2022-12-18T04:40:12;95541.91;;;6.85;60.82
29197;BME280;62796;42.654;23.316;2022-12-18T04:42:39;95543.88;;;6.85;60.68
29197;BME280;62796;42.654;23.316;2022-12-18T04:45:04;95537.41;;;6.91;60.16
29197;BME280;62796;42.654;23.316;2022-12-18T04:47:30;95549.19;;;6.92;60.48
29197;BME280;62796;42.654;23.316;2022-12-18T04:49:56;95551.75;;;6.99;59.52
29197;BME280;62796;42.654;23.316;2022-12-18T04:52:21;95552.09;;;7.01;59.55
29197;BME280;62796;42.654;23.316;2022-12-18T04:54:46;95556.03;;;7.00;59.42
29197;BME280;62796;42.654;23.316;2022-12-18T04:57:12;95563.94;;;6.85;59.35
29197;BME280;62796;42.654;23.316;2022-12-18T04:59:37;95557.41;;;6.79;59.18
29197;BME280;62796;42.654;23.316;2022-12-18T05:02:03;95574.03;;;6.76;59.38
29197;BME280;62796;42.654;23.316;2022-12-18T05:04:28;95564.47;;;6.80;59.24
29197;BME280;62796;42.654;23.316;2022-12-18T05:06:53;95569.41;;;6.73;59.40
29197;BME280;62796;42.654;23.316;2022-12-18T05:09:19;95576.56;;;6.70;59.57
29197;BME280;62796;42.654;23.316;2022-12-18T05:11:44;95572.78;;;6.64;59.52
29197;BME280;62796;42.654;23.316;2022-12-18T05:14:10;95573.66;;;6.61;59.39
29197;BME280;62796;42.654;23.316;2022-12-18T05:16:36;95578.38;;;6.60;59.23
29197;BME280;62796;42.654;23.316;2022-12-18T05:19:01;95578.81;;;6.59;59.61
29197;BME280;62796;42.654;23.316;2022-12-18T05:21:26;95589.75;;;6.62;59.76
29197;BME280;62796;42.654;23.316;2022-12-18T05:23:52;95591.72;;;6.62;59.57
29197;BME280;62796;42.654;23.316;2022-12-18T05:26:18;95595.50;;;6.68;59.27
29197;BME280;62796;42.654;23.316;2022-12-18T05:28:44;95602.34;;;6.76;59.10
29197;BME280;62796;42.654;23.316;2022-12-18T05:31:09;95603.03;;;6.80;58.76
29197;BME280;62796;42.654;23.316;2022-12-18T05:33:35;95612.31;;;6.86;59.04
29197;BME280;62796;42.654;23.316;2022-12-18T05:36:05;95623.97;;;6.90;58.64
29197;BME280;62796;42.654;23.316;2022-12-18T05:38:32;95624.66;;;6.94;58.37
29197;BME280;62796;42.654;23.316;2022-12-18T05:40:58;95628.63;;;6.93;58.77
29197;BME280;62796;42.654;23.316;2022-12-18T05:43:25;95626.00;;;7.02;58.66
29197;BME280;62796;42.654;23.316;2022-12-18T05:45:51;95626.00;;;7.02;58.52
29197;BME280;62796;42.654;23.316;2022-12-18T05:48:17;95639.13;;;6.98;57.99
29197;BME280;62796;42.654;23.316;2022-12-18T05:50:44;95628.47;;;6.84;57.57
29197;BME280;62796;42.654;23.316;2022-12-18T05:53:10;95625.41;;;6.66;57.72
29197;BME280;62796;42.654;23.316;2022-12-18T05:55:36;95629.94;;;6.60;58.04
29197;BME280;62796;42.654;23.316;2022-12-18T05:58:04;95634.06;;;6.52;58.16
29197;BME280;62796;42.654;23.316;2022-12-18T06:00:30;95642.84;;;6.47;58.46
29197;BME280;62796;42.654;23.316;2022-12-18T06:02:57;95646.28;;;6.51;58.79
29197;BME280;62796;42.654;23.316;2022-12-18T06:05:23;95641.44;;;6.55;58.65
29197;BME280;62796;42.654;23.316;2022-12-18T06:07:48;95657.09;;;6.58;58.55
29197;BME280;62796;42.654;23.316;2022-12-18T06:10:13;95655.38;;;6.64;58.58
29197;BME280;62796;42.654;23.316;2022-12-18T06:12:39;95647.25;;;6.73;58.06
29197;BME280;62796;42.654;23.316;2022-12-18T06:15:05;95662.44;;;6.65;58.38
29197;BME280;62796;42.654;23.316;2022-12-18T06:17:31;95652.81;;;6.57;58.49
29197;BME280;62796;42.654;23.316;2022-12-18T06:19:56;95661.22;;;6.66;58.38
29197;BME280;62796;42.654;23.316;2022-12-18T06:22:22;95656.94;;;6.65;58.22
29197;BME280;62796;42.654;23.316;2022-12-18T06:24:48;95660.22;;;6.60;58.60
29197;BME280;62796;42.654;23.316;2022-12-18T06:27:13;95670.16;;;6.70;58.20
29197;BME280;62796;42.654;23.316;2022-12-18T06:29:39;95664.22;;;6.72;58.20
29197;BME280;62796;42.654;23.316;2022-12-18T06:32:04;95674.63;;;6.80;58.09
29197;BME280;62796;42.654;23.316;2022-12-18T06:34:30;95669.91;;;6.81;57.89
29197;BME280;62796;42.654;23.316;2022-12-18T06:36:55;95672.19;;;6.82;57.95
29197;BME280;62796;42.654;23.316;2022-12-18T06:39:20;95676.84;;;6.85;57.43
29197;BME280;62796;42.654;23.316;2022-12-18T06:41:46;95689.59;;;6.79;57.96
29197;BME280;62796;42.654;23.316;2022-12-18T06:44:11;95686.31;;;6.84;57.33
29197;BME280;62796;42.654;23.316;2022-12-18T06:46:37;95691.81;;;6.84;57.50
29197;BME280;62796;42.654;23.316;2022-12-18T06:49:03;95691.63;;;6.91;57.21
29197;BME280;62796;42.654;23.316;2022-12-18T06:51:28;95701.59;;;7.01;56.89
29197;BME280;62796;42.654;23.316;2022-12-18T06:53:54;95697.75;;;6.99;56.90
29197;BME280;62796;42.654;23.316;2022-12-18T06:56:19;95696.59;;;6.96;56.63
29197;BME280;62796;42.654;23.316;2022-12-18T06:58:45;95708.84;;;6.95;56.71
29197;BME280;62796;42.654;23.316;2022-12-18T07:01:11;95701.97;;;6.87;56.20
29197;BME280;62796;42.654;23.316;2022-12-18T07:03:38;95697.22;;;6.88;56.33
29197;BME280;62796;42.654;23.316;2022-12-18T07:06:04;95700.69;;;6.76;56.61
29197;BME280;62796;42.654;23.316;2022-12-18T07:08:30;95708.88;;;6.79;56.34
29197;BME280;62796;42.654;23.316;2022-12-18T07:10:56;95715.56;;;6.78;56.28
29197;BME280;62796;42.654;23.316;2022-12-18T07:13:21;95713.00;;;6.71;56.38
29197;BME280;62796;42.654;23.316;2022-12-18T07:15:47;95713.09;;;6.67;56.60
29197;BME280;62796;42.654;23.316;2022-12-18T07:18:12;95715.06;;;6.67;56.56
29197;BME280;62796;42.654;23.316;2022-12-18T07:20:38;95710.69;;;6.69;56.57
29197;BME280;62796;42.654;23.316;2022-12-18T07:23:04;95713.63;;;6.62;56.20
29197;BME280;62796;42.654;23.316;2022-12-18T07:25:33;95720.78;;;6.60;56.07
29197;BME280;62796;42.654;23.316;2022-12-18T07:27:59;95711.13;;;6.52;56.15
29197;BME280;62796;42.654;23.316;2022-12-18T07:30:25;95729.03;;;6.60;56.03
29197;BME280;62796;42.654;23.316;2022-12-18T07:32:50;95729.38;;;6.62;56.19
29197;BME280;62796;42.654;23.316;2022-12-18T07:35:15;95741.94;;;6.63;56.02
29197;BME280;62796;42.654;23.316;2022-12-18T07:37:41;95737.19;;;6.63;55.95
29197;BME280;62796;42.654;23.316;2022-12-18T07:40:07;95733.31;;;6.61;56.28
29197;BME280;62796;42.654;23.316;2022-12-18T07:42:33;95737.09;;;6.67;56.25
29197;BME280;62796;42.654;23.316;2022-12-18T07:45:00;95741.03;;;6.66;56.31
29197;BME280;62796;42.654;23.316;2022-12-18T07:47:27;95737.19;;;6.63;56.13
29197;BME280;62796;42.654;23.316;2022-12-18T07:49:53;95737.28;;;6.60;55.81
29197;BME280;62796;42.654;23.316;2022-12-18T07:52:18;95740.19;;;6.69;55.60
29197;BME280;62796;42.654;23.316;2022-12-18T07:54:43;95748.59;;;6.78;55.35
29197;BME280;62796;42.654;23.316;2022-12-18T07:57:09;95749.22;;;6.86;55.19
29197;BME280;62796;42.654;23.316;2022-12-18T07:59:35;95748.44;;;6.85;54.55
29197;BME280;62796;42.654;23.316;2022-12-18T08:02:00;95747.75;;;6.81;55.11
29197;BME280;62796;42.654;23.316;2022-12-18T08:04:26;95760.31;;;6.82;54.84
29197;BME280;62796;42.654;23.316;2022-12-18T08:06:51;95766.00;;;6.75;54.79
29197;BME280;62796;42.654;23.316;2022-12-18T08:09:17;95779.44;;;6.73;54.70
29197;BME280;62796;42.654;23.316;2022-12-18T08:11:42;95777.78;;;6.76;54.54
29197;BME280;62796;42.654;23.316;2022-12-18T08:14:08;95778.72;;;6.69;54.96
29197;BME280;62796;42.654;23.316;2022-12-18T08:16:34;95785.28;;;6.75;55.07
29197;BME280;62796;42.654;23.316;2022-12-18T08:18:59;95787.34;;;6.71;55.03
29197;BME280;62796;42.654;23.316;2022-12-18T08:21:29;95795.41;;;6.78;54.70
29197;BME280;62796;42.654;23.316;2022-12-18T08:23:58;95802.81;;;6.81;54.66
29197;BME280;62796;42.654;23.316;2022-12-18T08:26:27;95815.41;;;6.82;54.54
29197;BME280;62796;42.654;23.316;2022-12-18T08:28:54;95811.94;;;6.78;55.22
29197;BME280;62796;42.654;23.316;2022-12-18T08:31:20;95811.59;;;6.76;55.05
29197;BME280;62796;42.654;23.316;2022-12-18T08:33:48;95808.53;;;6.74;55.28
29197;BME280;62796;42.654;23.316;2022-12-18T08:36:15;95816.78;;;6.74;55.06
29197;BME280;62796;42.654;23.316;2022-12-18T08:38:40;95817.63;;;6.71;55.13
29197;BME280;62796;42.654;23.316;2022-12-18T08:41:08;95824.00;;;6.68;55.40
29197;BME280;62796;42.654;23.316;2022-12-18T08:43:34;95812.91;;;6.72;55.34
29197;BME280;62796;42.654;23.316;2022-12-18T08:46:19;95821.34;;;6.81;55.30
29197;BME280;62796;42.654;23.316;2022-12-18T08:48:45;95827.78;;;6.90;55.12
29197;BME280;62796;42.654;23.316;2022-12-18T08:51:10;95821.78;;;6.95;54.90
29197;BME280;62796;42.654;23.316;2022-12-18T08:53:36;95814.19;;;6.99;54.80
29197;BME280;62796;42.654;23.316;2022-12-18T08:56:03;95827.53;;;7.01;54.79
29197;BME280;62796;42.654;23.316;2022-12-18T08:58:29;95818.06;;;7.02;54.58
29197;BME280;62796;42.654;23.316;2022-12-18T09:01:00;95815.28;;;7.18;54.19
29197;BME280;62796;42.654;23.316;2022-12-18T09:03:25;95809.63;;;7.09;53.86
29197;BME280;62796;42.654;23.316;2022-12-18T09:05:51;95809.78;;;7.18;53.79
29197;BME280;62796;42.654;23.316;2022-12-18T09:08:16;95810.91;;;7.20;53.42
29197;BME280;62796;42.654;23.316;2022-12-18T09:10:43;95797.97;;;7.17;54.03
29197;BME280;62796;42.654;23.316;2022-12-18T09:13:10;95811.44;;;7.15;53.79
29197;BME280;62796;42.654;23.316;2022-12-18T09:15:43;95811.44;;;7.15;53.86
29197;BME280;62796;42.654;23.316;2022-12-18T09:18:11;95816.25;;;7.11;53.73
29197;BME280;62796;42.654;23.316;2022-12-18T09:20:37;95812.38;;;7.09;54.02
29197;BME280;62796;42.654;23.316;2022-12-18T09:23:03;95803.69;;;7.10;53.95
29197;BME280;62796;42.654;23.316;2022-12-18T09:25:29;95813.31;;;7.02;54.09
29197;BME280;62796;42.654;23.316;2022-12-18T09:28:12;95813.69;;;7.04;54.31
29197;BME280;62796;42.654;23.316;2022-12-18T09:30:46;95806.44;;;7.10;53.91
29197;BME280;62796;42.654;23.316;2022-12-18T09:33:12;95807.81;;;7.18;53.85
29197;BME280;62796;42.654;23.316;2022-12-18T09:35:39;95801.97;;;7.16;53.50
29197;BME280;62796;42.654;23.316;2022-12-18T09:38:04;95807.47;;;7.16;53.87
29197;BME280;62796;42.654;23.316;2022-12-18T09:40:36;95812.00;;;7.23;53.19
29197;BME280;62796;42.654;23.316;2022-12-18T09:43:05;95820.03;;;7.17;53.11
29197;BME280;62796;42.654;23.316;2022-12-18T09:45:41;95809.69;;;7.21;52.69
29197;BME280;62796;42.654;23.316;2022-12-18T09:48:32;95814.50;;;7.34;52.65
29197;BME280;62796;42.654;23.316;2022-12-18T09:51:03;95809.22;;;7.39;52.01
29197;BME280;62796;42.654;23.316;2022-12-18T09:53:35;95816.31;;;7.40;52.17
29197;BME280;62796;42.654;23.316;2022-12-18T09:56:04;95808.69;;;7.44;52.23
29197;BME280;62796;42.654;23.316;2022-12-18T10:00:55;95813.59;;;7.53;51.84
29197;BME280;62796;42.654;23.316;2022-12-18T10:03:22;95810.09;;;7.65;52.22
29197;BME280;62796;42.654;23.316;2022-12-18T10:14:13;95812.81;;;7.81;50.26
29197;BME280;62796;42.654;23.316;2022-12-18T10:19:51;95820.47;;;7.61;50.26
29197;BME280;62796;42.654;23.316;2022-12-18T10:25:25;95814.09;;;7.64;50.38
29197;BME280;62796;42.654;23.316;2022-12-18T10:27:58;95819.25;;;7.62;50.60
29197;BME280;62796;42.654;23.316;2022-12-18T10:30:26;95814.28;;;7.57;50.04
29197;BME280;62796;42.654;23.316;2022-12-18T10:32:52;95817.16;;;7.66;49.60
29197;BME280;62796;42.654;23.316;2022-12-18T10:35:24;95810.31;;;7.58;49.26
29197;BME280;62796;42.654;23.316;2022-12-18T10:40:56;95814.28;;;7.57;49.13
29197;BME280;62796;42.654;23.316;2022-12-18T10:51:05;95819.00;;;7.28;49.80
29197;BME280;62796;42.654;23.316;2022-12-18T10:53:33;95808.66;;;7.15;49.75
29197;BME280;62796;42.654;23.316;2022-12-18T10:56:02;95816.00;;;7.22;49.83
29197;BME280;62796;42.654;23.316;2022-12-18T10:58:31;95802.28;;;7.18;50.11
29197;BME280;62796;42.654;23.316;2022-12-18T11:01:17;95803.69;;;7.10;49.93
29197;BME280;62796;42.654;23.316;2022-12-18T11:03:46;95806.09;;;7.08;49.50
29197;BME280;62796;42.654;23.316;2022-12-18T11:06:24;95802.06;;;7.13;49.91
29197;BME280;62796;42.654;23.316;2022-12-18T11:09:00;95805.06;;;7.18;49.00
29197;BME280;62796;42.654;23.316;2022-12-18T11:11:26;95812.28;;;7.12;48.18
29197;BME280;62796;42.654;23.316;2022-12-18T11:16:28;95813.72;;;7.17;48.06
29197;BME280;62796;42.654;23.316;2022-12-18T11:21:42;95821.41;;;7.09;48.32
29197;BME280;62796;42.654;23.316;2022-12-18T11:24:19;95816.94;;;7.15;48.20
29197;BME280;62796;42.654;23.316;2022-12-18T11:26:46;95814.50;;;7.17;47.90
29197;BME280;62796;42.654;23.316;2022-12-18T11:29:17;95810.03;;;7.23;47.76
29197;BME280;62796;42.654;23.316;2022-12-18T11:31:43;95806.25;;;7.17;47.68
29197;BME280;62796;42.654;23.316;2022-12-18T11:34:28;95810.66;;;7.15;47.75
29197;BME280;62796;42.654;23.316;2022-12-18T11:36:57;95809.88;;;7.14;47.83
29197;BME280;62796;42.654;23.316;2022-12-18T11:42:14;95827.34;;;7.08;47.76
29197;BME280;62796;42.654;23.316;2022-12-18T11:47:44;95829.59;;;7.13;47.19
29197;BME280;62796;42.654;23.316;2022-12-18T11:50:19;95819.53;;;7.06;46.80
29197;BME280;62796;42.654;23.316;2022-12-18T11:52:47;95825.56;;;7.01;46.60
29197;BME280;62796;42.654;23.316;2022-12-18T11:55:31;95822.28;;;6.90;46.99
29197;BME280;62796;42.654;23.316;2022-12-18T12:09:39;95819.19;;;6.88;48.40
29197;BME280;62796;42.654;23.316;2022-12-18T12:17:17;95814.38;;;6.92;48.41
29197;BME280;62796;42.654;23.316;2022-12-18T12:20:06;95805.09;;;6.86;48.71
29197;BME280;62796;42.654;23.316;2022-12-18T12:31:32;95822.63;;;6.76;48.88
29197;BME280;62796;42.654;23.316;2022-12-18T12:39:36;95825.91;;;7.03;48.57
29197;BME280;62796;42.654;23.316;2022-12-18T12:42:04;95817.34;;;7.14;48.45
29197;BME280;62796;42.654;23.316;2022-12-18T12:44:55;95822.94;;;7.27;48.11
29197;BME280;62796;42.654;23.316;2022-12-18T12:47:28;95817.25;;;7.34;48.56
29197;BME280;62796;42.654;23.316;2022-12-18T12:49:58;95819.38;;;7.42;48.16
29197;BME280;62796;42.654;23.316;2022-12-18T12:54:55;95826.31;;;7.63;47.78
29197;BME280;62796;42.654;23.316;2022-12-18T13:00:25;95835.53;;;7.56;48.24
29197;BME280;62796;42.654;23.316;2022-12-18T13:03:01;95829.63;;;7.58;48.24
29197;BME280;62796;42.654;23.316;2022-12-18T13:08:06;95840.28;;;7.56;48.75
29197;BME280;62796;42.654;23.316;2022-12-18T13:10:40;95833.75;;;7.50;48.34
29197;BME280;62796;42.654;23.316;2022-12-18T13:15:48;95851.16;;;7.47;48.13
29197;BME280;62796;42.654;23.316;2022-12-18T13:18:24;95852.38;;;7.46;48.85
29197;BME280;62796;42.654;23.316;2022-12-18T13:36:43;95861.13;;;7.57;48.19
29197;BME280;62796;42.654;23.316;2022-12-18T13:42:31;95862.78;;;7.54;48.13
29197;BME280;62796;42.654;23.316;2022-12-18T13:44:59;95867.00;;;7.59;48.10
29197;BME280;62796;42.654;23.316;2022-12-18T13:49:54;95877.16;;;7.62;48.32
29197;BME280;62796;42.654;23.316;2022-12-18T13:52:28;95883.53;;;7.59;48.10
29197;BME280;62796;42.654;23.316;2022-12-18T13:55:00;95877.16;;;7.62;48.06
29197;BME280;62796;42.654;23.316;2022-12-18T13:57:27;95885.25;;;7.69;48.23
29197;BME280;62796;42.654;23.316;2022-12-18T13:59:53;95894.00;;;7.80;48.16
29197;BME280;62796;42.654;23.316;2022-12-18T14:02:24;95889.75;;;7.92;48.06
29197;BME280;62796;42.654;23.316;2022-12-18T14:04:50;95895.16;;;7.95;47.76
29197;BME280;62796;42.654;23.316;2022-12-18T14:07:28;95901.38;;;7.99;47.88
29197;BME280;62796;42.654;23.316;2022-12-18T14:09:58;95888.47;;;7.96;47.60
29197;BME280;62796;42.654;23.316;2022-12-18T14:12:28;95893.13;;;7.83;47.70
29197;BME280;62796;42.654;23.316;2022-12-18T14:15:43;95886.25;;;7.75;47.29
29197;BME280;62796;42.654;23.316;2022-12-18T14:21:45;95908.50;;;7.68;46.61
29197;BME280;62796;42.654;23.316;2022-12-18T14:26:36;95903.00;;;7.68;46.23
29197;BME280;62796;42.654;23.316;2022-12-18T14:31:43;95907.84;;;7.64;46.08
29197;BME280;62796;42.654;23.316;2022-12-18T14:34:17;95918.97;;;7.60;45.72
29197;BME280;62796;42.654;23.316;2022-12-18T14:36:53;95905.59;;;7.59;45.87
29197;BME280;62796;42.654;23.316;2022-12-18T14:39:20;95913.53;;;7.57;46.25
29197;BME280;62796;42.654;23.316;2022-12-18T14:41:48;95910.00;;;7.56;46.16
29197;BME280;62796;42.654;23.316;2022-12-18T14:44:13;95903.59;;;7.59;46.37
29197;BME280;62796;42.654;23.316;2022-12-18T14:46:39;95908.72;;;7.61;45.94
29197;BME280;62796;42.654;23.316;2022-12-18T14:49:32;95910.59;;;7.64;46.24
29197;BME280;62796;42.654;23.316;2022-12-18T14:52:03;95898.34;;;7.65;46.00
29197;BME280;62796;42.654;23.316;2022-12-18T14:54:30;95895.59;;;7.65;45.46
29197;BME280;62796;42.654;23.316;2022-12-18T14:57:02;95903.78;;;7.68;45.36
29197;BME280;62796;42.654;23.316;2022-12-18T14:59:29;95905.25;;;7.73;45.71
29197;BME280;62796;42.654;23.316;2022-12-18T15:04:37;95906.50;;;7.85;45.18
29197;BME280;62796;42.654;23.316;2022-12-18T15:09:29;95910.53;;;7.96;44.93
29197;BME280;62796;42.654;23.316;2022-12-18T15:12:00;95913.84;;;8.04;44.67
29197;BME280;62796;42.654;23.316;2022-12-18T15:14:34;95919.72;;;8.06;44.34
29197;BME280;62796;42.654;23.316;2022-12-18T15:17:02;95917.94;;;7.99;43.80
29197;BME280;62796;42.654;23.316;2022-12-18T15:19:38;95921.91;;;7.98;43.85
29197;BME280;62796;42.654;23.316;2022-12-18T15:22:17;95925.19;;;7.93;44.27
29197;BME280;62796;42.654;23.316;2022-12-18T15:24:43;95920.97;;;7.89;44.21
29197;BME280;62796;42.654;23.316;2022-12-18T15:27:23;95930.97;;;7.82;44.19
29197;BME280;62796;42.654;23.316;2022-12-18T15:32:36;95946.84;;;7.78;44.28
29197;BME280;62796;42.654;23.316;2022-12-18T15:35:18;95943.16;;;7.69;44.34
29197;BME280;62796;42.654;23.316;2022-12-18T15:37:44;95953.16;;;7.63;44.27
29197;BME280;62796;42.654;23.316;2022-12-18T15:40:14;95955.38;;;7.68;43.86